createdAt,value
2019-03-24T00:00:28.110Z,1005.84
2019-03-24T00:01:28.143Z,1005.87
2019-03-24T00:02:28.165Z,1005.89
2019-03-24T00:03:28.193Z,1005.87
2019-03-24T00:04:28.220Z,1005.88
2019-03-24T00:05:28.249Z,1005.85
2019-03-24T00:06:28.274Z,1005.87
2019-03-24T00:07:28.302Z,1005.87
2019-03-24T00:08:28.330Z,1005.87
2019-03-24T00:09:28.357Z,1005.80
2019-03-24T00:10:28.387Z,1005.84
2019-03-24T00:11:28.411Z,1005.82
2019-03-24T00:12:28.466Z,1005.84
2019-03-24T00:13:28.465Z,1005.82
2019-03-24T00:14:28.494Z,1005.86
2019-03-24T00:15:28.528Z,1005.86
2019-03-24T00:16:28.546Z,1005.87
2019-03-24T00:17:28.577Z,1005.83
2019-03-24T00:18:28.605Z,1005.85
2019-03-24T00:19:28.629Z,1005.89
2019-03-24T00:20:28.656Z,1005.87
2019-03-24T00:21:28.684Z,1005.86
2019-03-24T00:22:28.710Z,1005.83
2019-03-24T00:23:28.739Z,1005.82
2019-03-24T00:24:28.765Z,1005.79
2019-03-24T00:25:28.793Z,1005.82
2019-03-24T00:26:28.820Z,1005.80
2019-03-24T00:27:28.848Z,1005.81
2019-03-24T00:28:28.875Z,1005.79
2019-03-24T00:29:28.898Z,1005.77
2019-03-24T00:30:28.927Z,1005.76
2019-03-24T00:31:28.955Z,1005.70
2019-03-24T00:32:28.982Z,1005.69
2019-03-24T00:33:29.008Z,1005.72
2019-03-24T00:34:29.036Z,1005.74
2019-03-24T00:35:29.062Z,1005.68
2019-03-24T00:36:29.088Z,1005.72
2019-03-24T00:37:29.116Z,1005.66
2019-03-24T00:38:29.144Z,1005.69
2019-03-24T00:39:29.171Z,1005.66
2019-03-24T00:40:29.197Z,1005.67
2019-03-24T00:41:29.224Z,1005.66
2019-03-24T00:42:29.250Z,1005.66
2019-03-24T00:43:29.279Z,1005.69
2019-03-24T00:44:29.306Z,1005.68
2019-03-24T00:45:36.768Z,1005.66
2019-03-24T00:46:29.361Z,1005.64
2019-03-24T00:47:29.387Z,1005.64
2019-03-24T00:48:29.413Z,1005.59
2019-03-24T00:49:29.440Z,1005.61
2019-03-24T00:50:29.475Z,1005.61
2019-03-24T00:51:29.496Z,1005.59
2019-03-24T00:52:29.522Z,1005.59
2019-03-24T00:53:29.549Z,1005.59
2019-03-24T00:54:29.576Z,1005.61
2019-03-24T00:55:29.606Z,1005.62
2019-03-24T00:56:29.629Z,1005.61
2019-03-24T00:57:29.657Z,1005.59
2019-03-24T00:58:29.686Z,1005.59
2019-03-24T00:59:29.711Z,1005.55
2019-03-24T01:00:29.739Z,1005.55
2019-03-24T01:01:29.764Z,1005.51
2019-03-24T01:02:29.792Z,1005.50
2019-03-24T01:03:29.819Z,1005.45
2019-03-24T01:04:29.843Z,1005.51
2019-03-24T01:05:29.872Z,1005.49
2019-03-24T01:06:29.899Z,1005.47
2019-03-24T01:07:29.927Z,1005.45
2019-03-24T01:08:29.954Z,1005.47
2019-03-24T01:09:29.979Z,1005.47
2019-03-24T01:10:30.016Z,1005.44
2019-03-24T01:11:30.034Z,1005.40
2019-03-24T01:12:30.059Z,1005.45
2019-03-24T01:13:30.989Z,1005.47
2019-03-24T01:14:30.114Z,1005.43
2019-03-24T01:15:30.141Z,1005.42
2019-03-24T01:16:30.167Z,1005.38
2019-03-24T01:17:30.194Z,1005.39
2019-03-24T01:18:30.222Z,1005.39
2019-03-24T01:19:30.248Z,1005.45
2019-03-24T01:20:30.274Z,1005.40
2019-03-24T01:21:30.302Z,1005.40
2019-03-24T01:22:30.329Z,1005.33
2019-03-24T01:23:30.421Z,1005.37
2019-03-24T01:24:30.382Z,1005.34
2019-03-24T01:25:30.415Z,1005.34
2019-03-24T01:26:30.437Z,1005.33
2019-03-24T01:27:30.463Z,1005.29
2019-03-24T01:28:30.487Z,1005.36
2019-03-24T01:29:30.516Z,1005.37
2019-03-24T01:30:30.543Z,1005.33
2019-03-24T01:31:30.570Z,1005.34
2019-03-24T01:32:30.594Z,1005.35
2019-03-24T01:33:30.623Z,1005.36
2019-03-24T01:34:30.648Z,1005.35
2019-03-24T01:35:30.676Z,1005.36
2019-03-24T01:36:30.701Z,1005.39
2019-03-24T01:37:30.743Z,1005.37
2019-03-24T01:38:30.755Z,1005.31
2019-03-24T01:39:30.782Z,1005.38
2019-03-24T01:40:30.807Z,1005.37
2019-03-24T01:41:30.834Z,1005.36
2019-03-24T01:42:30.860Z,1005.34
2019-03-24T01:43:30.887Z,1005.34
2019-03-24T01:44:30.919Z,1005.34
2019-03-24T01:45:30.940Z,1005.34
2019-03-24T01:46:30.968Z,1005.33
2019-03-24T01:47:30.994Z,1005.32
2019-03-24T01:48:31.019Z,1005.35
2019-03-24T01:49:31.047Z,1005.30
2019-03-24T01:50:31.073Z,1005.30
2019-03-24T01:51:31.100Z,1005.33
2019-03-24T01:52:31.125Z,1005.26
2019-03-24T01:53:31.153Z,1005.27
2019-03-24T01:54:31.179Z,1005.22
2019-03-24T01:55:31.206Z,1005.25
2019-03-24T01:56:31.233Z,1005.30
2019-03-24T01:57:31.258Z,1005.29
2019-03-24T01:58:31.284Z,1005.28
2019-03-24T01:59:31.312Z,1005.28
2019-03-24T02:00:31.337Z,1005.28
2019-03-24T02:01:31.363Z,1005.28
2019-03-24T02:02:31.394Z,1005.28
2019-03-24T02:03:31.417Z,1005.25
2019-03-24T02:04:31.442Z,1005.26
2019-03-24T02:05:31.477Z,1005.22
2019-03-24T02:06:31.496Z,1005.21
2019-03-24T02:07:31.523Z,1005.22
2019-03-24T02:08:31.548Z,1005.21
2019-03-24T02:09:31.573Z,1005.15
2019-03-24T02:10:31.602Z,1005.20
2019-03-24T02:11:31.628Z,1005.21
2019-03-24T02:12:31.655Z,1005.14
2019-03-24T02:13:31.683Z,1005.17
2019-03-24T02:14:31.706Z,1005.13
2019-03-24T02:15:31.733Z,1005.12
2019-03-24T02:16:31.759Z,1005.15
2019-03-24T02:17:31.785Z,1005.12
2019-03-24T02:18:31.815Z,1005.08
2019-03-24T02:19:31.841Z,1005.10
2019-03-24T02:20:31.864Z,1005.10
2019-03-24T02:21:31.891Z,1004.99
2019-03-24T02:22:31.917Z,1005.07
2019-03-24T02:23:31.946Z,1005.08
2019-03-24T02:24:31.970Z,1005.05
2019-03-24T02:25:31.995Z,1005.06
2019-03-24T02:26:32.021Z,1005.06
2019-03-24T02:27:32.049Z,1005.04
2019-03-24T02:28:32.075Z,1005.05
2019-03-24T02:29:32.100Z,1005.03
2019-03-24T02:30:32.128Z,1005.03
2019-03-24T02:31:32.161Z,1005.01
2019-03-24T02:32:32.179Z,1005.05
2019-03-24T02:33:32.208Z,1005.02
2019-03-24T02:34:32.233Z,1004.99
2019-03-24T02:35:32.309Z,1005.04
2019-03-24T02:36:32.284Z,1004.97
2019-03-24T02:37:32.312Z,1004.97
2019-03-24T02:38:32.338Z,1004.94
2019-03-24T02:39:32.364Z,1004.98
2019-03-24T02:40:32.390Z,1004.95
2019-03-24T02:41:32.416Z,1004.93
2019-03-24T02:42:32.443Z,1004.94
2019-03-24T02:43:32.472Z,1004.93
2019-03-24T02:44:32.494Z,1004.93
2019-03-24T02:45:32.521Z,1004.94
2019-03-24T02:46:32.549Z,1004.92
2019-03-24T02:47:32.573Z,1004.94
2019-03-24T02:48:32.600Z,1004.96
2019-03-24T02:49:32.629Z,1004.91
2019-03-24T02:50:32.657Z,1004.97
2019-03-24T02:51:32.678Z,1004.92
2019-03-24T02:52:32.704Z,1004.96
2019-03-24T02:53:32.730Z,1004.92
2019-03-24T02:54:32.755Z,1004.93
2019-03-24T02:55:32.782Z,1004.95
2019-03-24T02:56:32.809Z,1004.99
2019-03-24T02:57:32.833Z,1004.99
2019-03-24T02:58:32.863Z,1004.99
2019-03-24T02:59:32.886Z,1004.99
2019-03-24T03:00:32.913Z,1004.95
2019-03-24T03:01:32.938Z,1004.97
2019-03-24T03:02:32.966Z,1005.01
2019-03-24T03:03:32.995Z,1004.99
2019-03-24T03:04:33.016Z,1004.98
2019-03-24T03:05:33.043Z,1005.02
2019-03-24T03:06:33.104Z,1005.03
2019-03-24T03:07:33.101Z,1005.03
2019-03-24T03:08:33.172Z,1005.04
2019-03-24T03:09:33.148Z,1004.98
2019-03-24T03:10:33.177Z,1005.03
2019-03-24T03:11:33.199Z,1005.05
2019-03-24T03:12:33.225Z,1005.06
2019-03-24T03:13:33.253Z,1005.05
2019-03-24T03:14:33.278Z,1005.05
2019-03-24T03:15:33.309Z,1005.00
2019-03-24T03:16:38.774Z,1005.09
2019-03-24T03:17:33.355Z,1005.02
2019-03-24T03:18:33.395Z,1005.05
2019-03-24T03:19:33.408Z,1005.02
2019-03-24T03:20:33.437Z,1005.10
2019-03-24T03:21:33.462Z,1005.09
2019-03-24T03:22:33.487Z,1005.05
2019-03-24T03:23:33.513Z,1005.02
2019-03-24T03:24:33.538Z,1005.04
2019-03-24T03:25:33.563Z,1005.08
2019-03-24T03:26:33.590Z,1005.05
2019-03-24T03:27:33.615Z,1005.06
2019-03-24T03:28:33.654Z,1005.08
2019-03-24T03:29:33.672Z,1005.06
2019-03-24T03:30:33.700Z,1005.10
2019-03-24T03:31:33.719Z,1005.09
2019-03-24T03:32:33.746Z,1005.07
2019-03-24T03:33:33.790Z,1005.12
2019-03-24T03:34:33.820Z,1005.06
2019-03-24T03:35:33.829Z,1005.06
2019-03-24T03:36:33.851Z,1005.07
2019-03-24T03:37:33.884Z,1005.09
2019-03-24T03:38:33.904Z,1005.05
2019-03-24T03:39:33.937Z,1005.06
2019-03-24T03:40:33.978Z,1005.10
2019-03-24T03:41:37.027Z,1005.09
2019-03-24T03:42:34.006Z,1005.11
2019-03-24T03:43:34.033Z,1005.09
2019-03-24T03:44:34.057Z,1005.09
2019-03-24T03:45:34.083Z,1005.11
2019-03-24T03:46:34.108Z,1005.06
2019-03-24T03:47:34.135Z,1005.06
2019-03-24T03:48:34.162Z,1005.08
2019-03-24T03:49:34.187Z,1005.09
2019-03-24T03:50:34.213Z,1005.10
2019-03-24T03:51:34.239Z,1005.08
2019-03-24T03:52:34.265Z,1005.10
2019-03-24T03:53:34.292Z,1005.05
2019-03-24T03:54:34.318Z,1005.04
2019-03-24T03:55:34.342Z,1005.10
2019-03-24T03:56:34.370Z,1005.08
2019-03-24T03:57:34.401Z,1005.09
2019-03-24T03:58:34.423Z,1005.10
2019-03-24T03:59:34.444Z,1005.06
2019-03-24T04:00:34.493Z,1005.10
2019-03-24T04:01:34.496Z,1005.07
2019-03-24T04:02:34.524Z,1005.09
2019-03-24T04:03:34.548Z,1005.09
2019-03-24T04:04:34.582Z,1005.12
2019-03-24T04:05:34.601Z,1005.15
2019-03-24T04:06:34.636Z,1005.14
2019-03-24T04:07:34.652Z,1005.11
2019-03-24T04:08:34.677Z,1005.15
2019-03-24T04:09:34.702Z,1005.16
2019-03-24T04:10:34.729Z,1005.14
2019-03-24T04:11:34.763Z,1005.17
2019-03-24T04:12:34.783Z,1005.16
2019-03-24T04:13:34.810Z,1005.18
2019-03-24T04:14:34.846Z,1005.15
2019-03-24T04:15:34.863Z,1005.10
2019-03-24T04:16:34.889Z,1005.14
2019-03-24T04:17:34.909Z,1005.09
2019-03-24T04:18:35.184Z,1005.14
2019-03-24T04:19:34.960Z,1005.15
2019-03-24T04:20:34.985Z,1005.11
2019-03-24T04:21:35.012Z,1005.13
2019-03-24T04:22:35.036Z,1005.15
2019-03-24T04:23:35.062Z,1005.15
2019-03-24T04:24:35.087Z,1005.17
2019-03-24T04:25:35.116Z,1005.20
2019-03-24T04:26:35.139Z,1005.18
2019-03-24T04:27:35.174Z,1005.17
2019-03-24T04:28:35.192Z,1005.19
2019-03-24T04:29:35.219Z,1005.21
2019-03-24T04:30:35.243Z,1005.19
2019-03-24T04:31:35.275Z,1005.21
2019-03-24T04:32:35.294Z,1005.15
2019-03-24T04:33:35.325Z,1005.22
2019-03-24T04:34:35.346Z,1005.21
2019-03-24T04:35:35.371Z,1005.24
2019-03-24T04:36:35.402Z,1005.21
2019-03-24T04:37:35.422Z,1005.24
2019-03-24T04:38:35.448Z,1005.25
2019-03-24T04:39:35.473Z,1005.24
2019-03-24T04:40:35.502Z,1005.21
2019-03-24T04:41:35.525Z,1005.20
2019-03-24T04:42:35.550Z,1005.19
2019-03-24T04:43:35.577Z,1005.28
2019-03-24T04:44:35.600Z,1005.20
2019-03-24T04:45:35.626Z,1005.25
2019-03-24T04:46:35.651Z,1005.24
2019-03-24T04:47:35.676Z,1005.24
2019-03-24T04:48:35.707Z,1005.26
2019-03-24T04:49:35.730Z,1005.23
2019-03-24T04:50:35.754Z,1005.26
2019-03-24T04:51:35.779Z,1005.27
2019-03-24T04:52:35.804Z,1005.27
2019-03-24T04:53:35.832Z,1005.23
2019-03-24T04:54:35.860Z,1005.26
2019-03-24T04:55:35.882Z,1005.26
2019-03-24T04:56:35.912Z,1005.26
2019-03-24T04:57:35.940Z,1005.31
2019-03-24T04:58:35.958Z,1005.27
2019-03-24T04:59:35.985Z,1005.28
2019-03-24T05:00:36.012Z,1005.29
2019-03-24T05:01:36.036Z,1005.31
2019-03-24T05:02:36.061Z,1005.31
2019-03-24T05:03:36.088Z,1005.28
2019-03-24T05:04:36.112Z,1005.24
2019-03-24T05:05:36.137Z,1005.21
2019-03-24T05:06:36.162Z,1005.22
2019-03-24T05:07:36.189Z,1005.16
2019-03-24T05:08:36.212Z,1005.23
2019-03-24T05:09:36.238Z,1005.20
2019-03-24T05:10:36.264Z,1005.18
2019-03-24T05:11:36.290Z,1005.18
2019-03-24T05:12:36.314Z,1005.18
2019-03-24T05:13:36.341Z,1005.17
2019-03-24T05:14:36.366Z,1005.16
2019-03-24T05:15:36.392Z,1005.12
2019-03-24T05:16:36.419Z,1005.17
2019-03-24T05:17:36.440Z,1005.14
2019-03-24T05:18:36.466Z,1005.10
2019-03-24T05:19:36.493Z,1005.09
2019-03-24T05:20:36.516Z,1005.03
2019-03-24T05:21:36.543Z,1005.12
2019-03-24T05:22:36.568Z,1005.11
2019-03-24T05:23:36.597Z,1005.10
2019-03-24T05:24:36.622Z,1005.10
2019-03-24T05:25:36.644Z,1005.18
2019-03-24T05:26:36.672Z,1005.16
2019-03-24T05:27:36.695Z,1005.19
2019-03-24T05:28:36.720Z,1005.18
2019-03-24T05:29:36.746Z,1005.19
2019-03-24T05:30:36.772Z,1005.18
2019-03-24T05:31:36.797Z,1005.24
2019-03-24T05:32:36.824Z,1005.22
2019-03-24T05:33:36.849Z,1005.21
2019-03-24T05:34:36.874Z,1005.23
2019-03-24T05:35:36.900Z,1005.18
2019-03-24T05:36:36.924Z,1005.20
2019-03-24T05:37:36.950Z,1005.21
2019-03-24T05:38:36.976Z,1005.24
2019-03-24T05:39:37.000Z,1005.25
2019-03-24T05:40:37.025Z,1005.20
2019-03-24T05:41:37.051Z,1005.21
2019-03-24T05:42:37.076Z,1005.26
2019-03-24T05:43:37.102Z,1005.26
2019-03-24T05:44:37.129Z,1005.24
2019-03-24T05:45:37.152Z,1005.26
2019-03-24T05:46:37.177Z,1005.23
2019-03-24T05:47:37.629Z,1005.24
2019-03-24T05:48:37.229Z,1005.23
2019-03-24T05:49:37.254Z,1005.24
2019-03-24T05:50:37.283Z,1005.25
2019-03-24T05:51:37.306Z,1005.27
2019-03-24T05:52:37.328Z,1005.29
2019-03-24T05:53:37.354Z,1005.26
2019-03-24T05:54:37.380Z,1005.24
2019-03-24T05:55:37.404Z,1005.27
2019-03-24T05:56:37.429Z,1005.28
2019-03-24T05:57:37.458Z,1005.30
2019-03-24T05:58:37.481Z,1005.30
2019-03-24T05:59:37.509Z,1005.27
2019-03-24T06:00:37.532Z,1005.27
2019-03-24T06:01:37.559Z,1005.26
2019-03-24T06:02:37.593Z,1005.32
2019-03-24T06:03:37.609Z,1005.27
2019-03-24T06:04:37.634Z,1005.32
2019-03-24T06:05:37.660Z,1005.29
2019-03-24T06:06:37.683Z,1005.29
2019-03-24T06:07:37.713Z,1005.33
2019-03-24T06:08:37.736Z,1005.31
2019-03-24T06:09:37.760Z,1005.31
2019-03-24T06:10:37.787Z,1005.30
2019-03-24T06:11:37.814Z,1005.37
2019-03-24T06:12:37.837Z,1005.35
2019-03-24T06:13:37.862Z,1005.34
2019-03-24T06:14:37.888Z,1005.38
2019-03-24T06:15:37.915Z,1005.38
2019-03-24T06:16:38.080Z,1005.41
2019-03-24T06:17:47.522Z,1005.37
2019-03-24T06:18:37.993Z,1005.36
2019-03-24T06:19:38.015Z,1005.42
2019-03-24T06:20:38.043Z,1005.46
2019-03-24T06:21:38.066Z,1005.43
2019-03-24T06:22:38.112Z,1005.42
2019-03-24T06:23:38.120Z,1005.43
2019-03-24T06:24:38.146Z,1005.52
2019-03-24T06:25:38.171Z,1005.48
2019-03-24T06:26:38.197Z,1005.51
2019-03-24T06:27:38.224Z,1005.52
2019-03-24T06:28:38.250Z,1005.49
2019-03-24T06:29:38.273Z,1005.43
2019-03-24T06:30:38.299Z,1005.41
2019-03-24T06:31:38.325Z,1005.44
2019-03-24T06:32:38.355Z,1005.41
2019-03-24T06:33:38.380Z,1005.47
2019-03-24T06:34:38.403Z,1005.46
2019-03-24T06:35:38.432Z,1005.45
2019-03-24T06:36:38.454Z,1005.47
2019-03-24T06:37:38.481Z,1005.44
2019-03-24T06:38:38.508Z,1005.44
2019-03-24T06:39:38.533Z,1005.46
2019-03-24T06:40:38.560Z,1005.50
2019-03-24T06:41:38.586Z,1005.48
2019-03-24T06:42:38.612Z,1005.49
2019-03-24T06:43:38.639Z,1005.41
2019-03-24T06:44:38.664Z,1005.41
2019-03-24T06:45:38.690Z,1005.44
2019-03-24T06:46:38.718Z,1005.45
2019-03-24T06:47:38.746Z,1005.41
2019-03-24T06:48:38.770Z,1005.49
2019-03-24T06:49:38.795Z,1005.45
2019-03-24T06:50:38.822Z,1005.45
2019-03-24T06:51:38.849Z,1005.46
2019-03-24T06:52:38.874Z,1005.41
2019-03-24T06:53:38.900Z,1005.39
2019-03-24T06:54:38.929Z,1005.41
2019-03-24T06:55:38.954Z,1005.43
2019-03-24T06:56:38.980Z,1005.49
2019-03-24T06:57:39.006Z,1005.49
2019-03-24T06:58:39.034Z,1005.51
2019-03-24T06:59:39.061Z,1005.47
2019-03-24T07:00:39.236Z,1005.46
2019-03-24T07:01:39.112Z,1005.45
2019-03-24T07:02:39.139Z,1005.50
2019-03-24T07:03:39.167Z,1005.49
2019-03-24T07:04:39.192Z,1005.46
2019-03-24T07:05:39.220Z,1005.48
2019-03-24T07:06:39.246Z,1005.47
2019-03-24T07:07:39.274Z,1005.44
2019-03-24T07:08:39.301Z,1005.42
2019-03-24T07:09:39.327Z,1005.41
2019-03-24T07:10:39.355Z,1005.41
2019-03-24T07:11:39.382Z,1005.44
2019-03-24T07:12:39.408Z,1005.41
2019-03-24T07:13:39.435Z,1005.43
2019-03-24T07:14:39.463Z,1005.37
2019-03-24T07:15:39.490Z,1005.39
2019-03-24T07:16:39.518Z,1005.37
2019-03-24T07:17:39.550Z,1005.37
2019-03-24T07:18:39.573Z,1005.37
2019-03-24T07:19:39.598Z,1005.38
2019-03-24T07:20:39.624Z,1005.34
2019-03-24T07:21:39.702Z,1005.36
2019-03-24T07:22:39.679Z,1005.32
2019-03-24T07:23:39.708Z,1005.33
2019-03-24T07:24:39.735Z,1005.28
2019-03-24T07:25:39.762Z,1005.31
2019-03-24T07:26:39.789Z,1005.36
2019-03-24T07:27:39.818Z,1005.34
2019-03-24T07:28:39.893Z,1005.30
2019-03-24T07:29:41.251Z,1005.33
2019-03-24T07:30:39.898Z,1005.33
2019-03-24T07:31:39.927Z,1005.31
2019-03-24T07:32:39.959Z,1005.32
2019-03-24T07:33:39.984Z,1005.23
2019-03-24T07:34:40.010Z,1005.24
2019-03-24T07:35:40.037Z,1005.24
2019-03-24T07:36:40.065Z,1005.26
2019-03-24T07:37:40.093Z,1005.29
2019-03-24T07:38:40.124Z,1005.30
2019-03-24T07:39:40.149Z,1005.29
2019-03-24T07:40:40.179Z,1005.34
2019-03-24T07:41:40.208Z,1005.36
2019-03-24T07:42:40.236Z,1005.35
2019-03-24T07:43:40.264Z,1005.35
2019-03-24T07:44:40.291Z,1005.36
2019-03-24T07:45:40.319Z,1005.32
2019-03-24T07:46:40.348Z,1005.36
2019-03-24T07:47:40.376Z,1005.30
2019-03-24T07:48:40.405Z,1005.31
2019-03-24T07:49:40.434Z,1005.32
2019-03-24T07:50:40.463Z,1005.31
2019-03-24T07:51:40.492Z,1005.28
2019-03-24T07:52:40.521Z,1005.33
2019-03-24T07:53:40.550Z,1005.29
2019-03-24T07:54:40.578Z,1005.35
2019-03-24T07:55:40.609Z,1005.37
2019-03-24T07:56:40.636Z,1005.34
2019-03-24T07:57:40.666Z,1005.30
2019-03-24T07:58:40.695Z,1005.32
2019-03-24T07:59:40.733Z,1005.32
2019-03-24T08:00:40.765Z,1005.37
2019-03-24T08:01:40.786Z,1005.34
2019-03-24T08:02:50.670Z,1005.36
2019-03-24T08:03:40.843Z,1005.39
2019-03-24T08:04:40.871Z,1005.41
2019-03-24T08:05:40.901Z,1005.42
2019-03-24T08:06:40.931Z,1005.44
2019-03-24T08:07:40.966Z,1005.45
2019-03-24T08:08:44.447Z,1005.37
2019-03-24T08:09:41.026Z,1005.40
2019-03-24T08:10:41.052Z,1005.42
2019-03-24T08:11:41.109Z,1005.41
2019-03-24T08:12:41.136Z,1005.37
2019-03-24T08:13:52.671Z,1005.42
2019-03-24T08:14:41.171Z,1005.43
2019-03-24T08:15:41.202Z,1005.42
2019-03-24T08:16:41.232Z,1005.41
2019-03-24T08:17:41.590Z,1005.44
2019-03-24T08:18:41.294Z,1005.45
2019-03-24T08:19:41.325Z,1005.42
2019-03-24T08:20:41.354Z,1005.42
2019-03-24T08:21:41.383Z,1005.43
2019-03-24T08:22:41.415Z,1005.39
2019-03-24T08:23:41.447Z,1005.39
2019-03-24T08:24:41.476Z,1005.43
2019-03-24T08:25:41.509Z,1005.42
2019-03-24T08:26:41.540Z,1005.47
2019-03-24T08:27:41.571Z,1005.45
2019-03-24T08:28:41.601Z,1005.41
2019-03-24T08:29:41.632Z,1005.47
2019-03-24T08:30:41.663Z,1005.45
2019-03-24T08:31:41.695Z,1005.43
2019-03-24T08:32:41.726Z,1005.45
2019-03-24T08:33:41.758Z,1005.43
2019-03-24T08:34:41.790Z,1005.42
2019-03-24T08:35:41.831Z,1005.44
2019-03-24T08:36:41.851Z,1005.48
2019-03-24T08:37:41.885Z,1005.44
2019-03-24T08:38:41.914Z,1005.46
2019-03-24T08:39:41.946Z,1005.48
2019-03-24T08:40:41.977Z,1005.49
2019-03-24T08:41:42.008Z,1005.47
2019-03-24T08:42:42.041Z,1005.50
2019-03-24T08:43:42.073Z,1005.46
2019-03-24T08:44:42.143Z,1005.54
2019-03-24T08:45:42.137Z,1005.55
2019-03-24T08:46:44.459Z,1005.49
2019-03-24T08:47:42.202Z,1005.49
2019-03-24T08:48:42.269Z,1005.45
2019-03-24T08:49:42.266Z,1005.46
2019-03-24T08:50:42.301Z,1005.46
2019-03-24T08:51:42.335Z,1005.46
2019-03-24T08:52:42.370Z,1005.43
2019-03-24T08:53:42.398Z,1005.43
2019-03-24T08:54:42.435Z,1005.35
2019-03-24T08:55:42.464Z,1005.40
2019-03-24T08:56:42.493Z,1005.39
2019-03-24T08:57:42.543Z,1005.37
2019-03-24T08:58:42.561Z,1005.39
2019-03-24T08:59:42.594Z,1005.35
2019-03-24T09:00:42.627Z,1005.37
2019-03-24T09:01:42.662Z,1005.40
2019-03-24T09:02:42.693Z,1005.41
2019-03-24T09:03:42.729Z,1005.46
2019-03-24T09:04:42.762Z,1005.47
2019-03-24T09:05:42.803Z,1005.53
2019-03-24T09:06:43.439Z,1005.49
2019-03-24T09:07:42.867Z,1005.50
2019-03-24T09:08:42.901Z,1005.53
2019-03-24T09:09:42.937Z,1005.49
2019-03-24T09:11:31.117Z,1005.49
2019-03-24T09:13:28.384Z,1005.47
2019-03-24T09:14:31.018Z,1005.48
2019-03-24T09:15:28.432Z,1005.47
2019-03-24T09:16:28.266Z,1005.42
2019-03-24T09:17:28.339Z,1005.43
2019-03-24T09:18:28.339Z,1005.48
2019-03-24T09:19:28.378Z,1005.51
2019-03-24T09:20:28.413Z,1005.51
2019-03-24T09:21:28.455Z,1005.51
2019-03-24T09:22:28.695Z,1005.48
2019-03-24T09:23:28.525Z,1005.44
2019-03-24T09:25:28.641Z,1005.41
2019-03-24T09:26:28.641Z,1005.42
2019-03-24T09:27:28.679Z,1005.43
2019-03-24T09:28:28.718Z,1005.40
2019-03-24T09:29:28.761Z,1005.41
2019-03-24T09:30:28.798Z,1005.43
2019-03-24T09:31:28.834Z,1005.42
2019-03-24T09:32:28.877Z,1005.37
2019-03-24T09:33:28.918Z,1005.42
2019-03-24T09:34:28.977Z,1005.35
2019-03-24T09:35:28.992Z,1005.37
2019-03-24T09:36:29.032Z,1005.40
2019-03-24T09:37:29.071Z,1005.37
2019-03-24T09:38:29.112Z,1005.35
2019-03-24T09:39:29.149Z,1005.39
2019-03-24T09:40:29.194Z,1005.37
2019-03-24T09:41:29.233Z,1005.41
2019-03-24T09:42:29.274Z,1005.39
2019-03-24T09:43:29.311Z,1005.39
2019-03-24T09:45:29.818Z,1005.37
2019-03-24T09:46:29.433Z,1005.41
2019-03-24T09:47:29.472Z,1005.38
2019-03-24T09:48:29.514Z,1005.37
2019-03-24T09:49:29.558Z,1005.39
2019-03-24T09:50:29.594Z,1005.38
2019-03-24T09:51:29.637Z,1005.42
2019-03-24T09:52:29.678Z,1005.40
2019-03-24T09:53:29.720Z,1005.35
2019-03-24T09:54:29.759Z,1005.31
2019-03-24T09:55:29.801Z,1005.35
2019-03-24T09:56:29.842Z,1005.34
2019-03-24T09:57:29.884Z,1005.34
2019-03-24T09:58:29.926Z,1005.33
2019-03-24T09:59:29.966Z,1005.34
2019-03-24T10:00:30.008Z,1005.35
2019-03-24T10:01:30.049Z,1005.38
2019-03-24T10:02:30.090Z,1005.37
2019-03-24T10:03:30.133Z,1005.38
2019-03-24T10:04:30.174Z,1005.38
2019-03-24T10:05:30.218Z,1005.36
2019-03-24T10:06:30.258Z,1005.33
2019-03-24T10:07:30.302Z,1005.36
2019-03-24T10:08:30.344Z,1005.33
2019-03-24T10:09:30.386Z,1005.34
2019-03-24T10:10:30.656Z,1005.36
2019-03-24T10:11:30.500Z,1005.32
2019-03-24T10:12:30.918Z,1005.33
2019-03-24T10:13:30.555Z,1005.34
2019-03-24T10:15:30.641Z,1005.31
2019-03-24T10:16:30.684Z,1005.32
2019-03-24T10:17:30.728Z,1005.32
2019-03-24T10:18:30.773Z,1005.35
2019-03-24T10:19:30.834Z,1005.34
2019-03-24T10:20:30.856Z,1005.35
2019-03-24T10:21:31.911Z,1005.34
2019-03-24T10:22:31.272Z,1005.35
2019-03-24T10:23:34.418Z,1005.32
2019-03-24T10:24:31.029Z,1005.33
2019-03-24T10:25:31.077Z,1005.33
2019-03-24T10:26:31.117Z,1005.35
2019-03-24T10:27:31.162Z,1005.33
2019-03-24T10:28:31.429Z,1005.33
2019-03-24T10:29:31.273Z,1005.34
2019-03-24T10:30:31.314Z,1005.39
2019-03-24T10:32:31.383Z,1005.42
2019-03-24T10:33:31.648Z,1005.46
2019-03-24T10:34:31.493Z,1005.45
2019-03-24T10:39:17.523Z,1005.44
2019-03-24T10:40:27.919Z,1005.44
2019-03-24T10:41:17.608Z,1005.47
2019-03-24T10:45:11.690Z,1005.42
2019-03-24T10:46:12.241Z,1005.43
2019-03-24T10:49:24.399Z,1005.49
2019-03-24T10:53:48.428Z,1005.48
2019-03-24T10:58:28.494Z,1005.49
2019-03-24T10:59:29.752Z,1005.47
2019-03-24T11:00:31.611Z,1005.44
2019-03-24T11:01:31.284Z,1005.48
2019-03-24T11:02:31.500Z,1005.51
2019-03-24T11:03:28.720Z,1005.52
2019-03-24T11:04:28.768Z,1005.59
2019-03-24T11:05:29.241Z,1005.57
2019-03-24T11:07:58.035Z,1005.53
2019-03-24T11:11:05.078Z,1005.54
2019-03-24T11:12:05.122Z,1005.53
2019-03-24T11:13:05.498Z,1005.55
2019-03-24T11:14:05.215Z,1005.59
2019-03-24T11:15:05.260Z,1005.57
2019-03-24T11:16:05.307Z,1005.59
2019-03-24T11:17:05.353Z,1005.62
2019-03-24T11:18:05.400Z,1005.65
2019-03-24T11:19:05.446Z,1005.64
2019-03-24T11:20:05.695Z,1005.65
2019-03-24T11:21:05.540Z,1005.62
2019-03-24T11:22:05.586Z,1005.65
2019-03-24T11:23:05.632Z,1005.68
2019-03-24T11:24:05.678Z,1005.63
2019-03-24T11:25:05.726Z,1005.68
2019-03-24T11:26:05.774Z,1005.64
2019-03-24T11:27:05.821Z,1005.62
2019-03-24T11:28:05.867Z,1005.66
2019-03-24T11:29:05.917Z,1005.63
2019-03-24T11:30:05.961Z,1005.66
2019-03-24T11:31:06.010Z,1005.62
2019-03-24T11:32:06.055Z,1005.61
2019-03-24T11:33:06.106Z,1005.60
2019-03-24T11:34:06.152Z,1005.60
2019-03-24T11:35:06.198Z,1005.54
2019-03-24T11:36:06.245Z,1005.61
2019-03-24T11:37:06.292Z,1005.59
2019-03-24T11:38:06.340Z,1005.55
2019-03-24T11:39:06.386Z,1005.62
2019-03-24T11:40:10.480Z,1005.60
2019-03-24T11:41:06.505Z,1005.59
2019-03-24T11:42:07.240Z,1005.56
2019-03-24T11:43:06.578Z,1005.56
2019-03-24T11:44:07.839Z,1005.54
2019-03-24T11:46:06.723Z,1005.50
2019-03-24T11:47:06.794Z,1005.50
2019-03-24T11:48:06.845Z,1005.48
2019-03-24T11:49:49.426Z,1005.49
2019-03-24T11:50:49.701Z,1005.47
2019-03-24T11:51:49.546Z,1005.52
2019-03-24T11:52:51.593Z,1005.46
2019-03-24T11:53:49.618Z,1005.47
2019-03-24T11:54:49.688Z,1005.46
2019-03-24T11:57:51.532Z,1005.45
2019-03-24T11:59:49.909Z,1005.43
2019-03-24T12:00:51.374Z,1005.43
2019-03-24T12:01:50.005Z,1005.45
2019-03-24T12:03:50.736Z,1005.41
2019-03-24T12:06:50.249Z,1005.38
2019-03-24T12:07:50.299Z,1005.37
2019-03-24T12:08:50.349Z,1005.34
2019-03-24T12:09:50.395Z,1005.33
2019-03-24T12:10:50.446Z,1005.33
2019-03-24T12:11:52.225Z,1005.36
2019-03-24T12:12:51.479Z,1005.29
2019-03-24T12:13:51.502Z,1005.29
2019-03-24T12:15:50.690Z,1005.28
2019-03-24T12:16:50.740Z,1005.22
2019-03-24T12:17:50.786Z,1005.24
2019-03-24T12:18:50.836Z,1005.19
2019-03-24T12:19:56.853Z,1005.24
2019-03-24T12:20:50.933Z,1005.23
2019-03-24T12:21:50.983Z,1005.18
2019-03-24T12:22:51.032Z,1005.19
2019-03-24T12:23:51.081Z,1005.17
2019-03-24T12:24:51.127Z,1005.18
2019-03-24T12:25:51.177Z,1005.20
2019-03-24T12:26:51.225Z,1005.23
2019-03-24T12:27:51.273Z,1005.17
2019-03-24T12:28:51.321Z,1005.20
2019-03-24T12:29:51.371Z,1005.17
2019-03-24T12:30:51.420Z,1005.12
2019-03-24T12:31:51.468Z,1005.10
2019-03-24T12:32:51.517Z,1005.11
2019-03-24T12:33:51.565Z,1005.11
2019-03-24T12:34:51.613Z,1005.11
2019-03-24T12:35:51.661Z,1005.15
2019-03-24T12:36:51.707Z,1005.13
2019-03-24T12:37:51.757Z,1005.11
2019-03-24T12:38:51.805Z,1005.16
2019-03-24T12:39:51.853Z,1005.14